createdAt,value
2019-05-11T00:00:08.407Z,75.50
2019-05-11T00:01:07.924Z,75.50
2019-05-11T00:02:08.478Z,75.70
2019-05-11T00:03:07.982Z,75.80
2019-05-11T00:04:07.454Z,75.80
2019-05-11T00:05:05.469Z,75.70
2019-05-11T00:06:05.517Z,75.60
2019-05-11T00:07:05.547Z,75.60
2019-05-11T00:08:08.183Z,75.70
2019-05-11T00:09:07.771Z,76.50
2019-05-11T00:10:08.320Z,76.40
2019-05-11T00:11:05.382Z,76.40
2019-05-11T00:12:05.503Z,76.40
2019-05-11T00:13:05.568Z,75.90
2019-05-11T00:14:05.579Z,75.80
2019-05-11T00:15:05.587Z,75.90
2019-05-11T00:16:05.526Z,76.20
2019-05-11T00:17:05.653Z,75.70
2019-05-11T00:18:05.772Z,75.60
2019-05-11T00:19:05.874Z,75.50
2019-05-11T00:20:04.991Z,75.50
2019-05-11T00:21:05.165Z,75.50
2019-05-11T00:22:07.773Z,75.50
2019-05-11T00:23:05.885Z,75.50
2019-05-11T00:24:08.310Z,75.40
2019-05-11T00:25:07.867Z,75.40
2019-05-11T00:26:05.902Z,75.30
2019-05-11T00:27:05.183Z,75.40
2019-05-11T00:28:05.316Z,75.50
2019-05-11T00:29:07.928Z,75.30
2019-05-11T00:30:05.954Z,75.30
2019-05-11T00:31:04.988Z,75.30
2019-05-11T00:32:05.010Z,75.30
2019-05-11T00:33:05.107Z,75.30
2019-05-11T00:34:05.145Z,75.40
2019-05-11T00:35:07.848Z,75.30
2019-05-11T00:36:05.826Z,75.30
2019-05-11T00:37:08.526Z,75.30
2019-05-11T00:38:08.066Z,75.40
2019-05-11T00:39:10.111Z,75.50
2019-05-11T00:40:15.055Z,75.50
2019-05-11T00:41:07.693Z,75.40
2019-05-11T00:42:05.562Z,75.50
2019-05-11T00:43:05.695Z,75.40
2019-05-11T00:44:08.340Z,75.50
2019-05-11T00:45:07.660Z,75.50
2019-05-11T00:46:08.131Z,75.50
2019-05-11T00:47:05.044Z,75.40
2019-05-11T00:48:05.115Z,75.30
2019-05-11T00:49:05.306Z,75.20
2019-05-11T00:50:05.394Z,75.20
2019-05-11T00:51:05.432Z,75.50
2019-05-11T00:52:05.464Z,75.50
2019-05-11T00:53:07.991Z,75.60
2019-05-11T00:54:08.404Z,75.70
2019-05-11T00:55:10.428Z,75.70
2019-05-11T00:56:05.417Z,75.70
2019-05-11T00:57:05.811Z,76.10
2019-05-11T00:58:08.396Z,76.10
2019-05-11T00:59:22.078Z,76.10
2019-05-11T01:00:07.829Z,76.20
2019-05-11T01:01:05.779Z,76.20
2019-05-11T01:02:08.374Z,76.50
2019-05-11T01:03:05.383Z,76.50
2019-05-11T01:04:05.527Z,76.50
2019-05-11T01:05:05.712Z,76.50
2019-05-11T01:06:05.031Z,76.70
2019-05-11T01:07:05.106Z,76.90
2019-05-11T01:08:05.122Z,77.20
2019-05-11T01:09:10.221Z,77.00
2019-05-11T01:10:05.134Z,77.00
2019-05-11T01:11:07.855Z,77.20
2019-05-11T01:12:05.838Z,77.20
2019-05-11T01:13:05.997Z,77.20
2019-05-11T01:14:07.578Z,77.50
2019-05-11T01:15:05.560Z,77.20
2019-05-11T01:16:08.136Z,77.30
2019-05-11T01:17:05.098Z,77.30
2019-05-11T01:18:05.008Z,77.30
2019-05-11T01:19:05.374Z,77.30
2019-05-11T01:20:05.460Z,77.20
2019-05-11T01:21:13.216Z,77.30
2019-05-11T01:22:07.667Z,77.30
2019-05-11T01:23:08.137Z,77.30
2019-05-11T01:24:07.591Z,77.30
2019-05-11T01:25:08.126Z,77.30
2019-05-11T01:26:10.113Z,77.30
2019-05-11T01:27:07.477Z,77.30
2019-05-11T01:28:05.424Z,77.30
2019-05-11T01:29:08.239Z,77.40
2019-05-11T01:30:07.856Z,77.30
2019-05-11T01:31:05.829Z,77.30
2019-05-11T01:32:06.051Z,77.30
2019-05-11T01:33:08.284Z,77.50
2019-05-11T01:34:07.724Z,77.40
2019-05-11T01:35:05.624Z,77.40
2019-05-11T01:36:05.847Z,77.50
2019-05-11T01:37:10.125Z,77.40
2019-05-11T01:38:05.147Z,77.40
2019-05-11T01:39:05.192Z,77.40
2019-05-11T01:40:05.361Z,77.40
2019-05-11T01:41:05.419Z,77.50
2019-05-11T01:42:07.965Z,77.70
2019-05-11T01:43:06.077Z,77.70
2019-05-11T01:44:05.289Z,77.70
2019-05-11T01:45:05.664Z,77.60
2019-05-11T01:46:10.951Z,77.50
2019-05-11T01:47:05.983Z,77.50
2019-05-11T01:48:05.017Z,77.60
2019-05-11T01:49:07.594Z,77.70
2019-05-11T01:50:08.024Z,77.70
2019-05-11T01:51:04.954Z,77.70
2019-05-11T01:52:05.054Z,77.70
2019-05-11T01:53:05.250Z,77.70
2019-05-11T01:54:05.336Z,77.70
2019-05-11T01:55:07.878Z,77.90
2019-05-11T01:56:08.391Z,77.90
2019-05-11T01:57:07.851Z,77.90
2019-05-11T01:58:05.721Z,77.90
2019-05-11T01:59:08.295Z,77.90
2019-05-11T02:00:07.742Z,77.80
2019-05-11T02:01:05.657Z,77.80
2019-05-11T02:02:10.892Z,77.80
2019-05-11T02:03:08.463Z,77.80
2019-05-11T02:04:05.442Z,77.80
2019-05-11T02:05:07.608Z,77.70
2019-05-11T02:06:05.566Z,77.70
2019-05-11T02:07:05.612Z,77.70
2019-05-11T02:08:08.152Z,77.90
2019-05-11T02:09:05.261Z,77.90
2019-05-11T02:10:08.034Z,78.00
2019-05-11T02:11:16.392Z,78.00
2019-05-11T02:12:05.411Z,78.50
2019-05-11T02:13:05.546Z,78.60
2019-05-11T02:14:05.560Z,78.70
2019-05-11T02:15:05.604Z,78.20
2019-05-11T02:16:05.685Z,78.70
2019-05-11T02:17:08.344Z,78.60
2019-05-11T02:18:05.456Z,78.60
2019-05-11T02:19:05.542Z,78.50
2019-05-11T02:20:05.132Z,78.70
2019-05-11T02:21:07.769Z,78.70
2019-05-11T02:22:08.301Z,78.60
2019-05-11T02:23:05.320Z,78.60
2019-05-11T02:24:05.497Z,79.20
2019-05-11T02:25:05.540Z,79.30
2019-05-11T02:26:08.163Z,79.40
2019-05-11T02:27:05.068Z,79.30
2019-05-11T02:28:07.587Z,79.80
2019-05-11T02:29:08.007Z,79.70
2019-05-11T02:30:08.475Z,79.70
2019-05-11T02:31:05.501Z,79.70
2019-05-11T02:32:05.572Z,79.60
2019-05-11T02:33:08.294Z,79.20
2019-05-11T02:34:05.326Z,79.20
2019-05-11T02:35:08.112Z,78.90
2019-05-11T02:36:05.088Z,78.80
2019-05-11T02:37:07.736Z,78.50
2019-05-11T02:38:05.704Z,78.50
2019-05-11T02:39:08.427Z,78.30
2019-05-11T02:40:07.981Z,78.40
2019-05-11T02:41:08.464Z,78.30
2019-05-11T02:42:05.367Z,78.30
2019-05-11T02:43:05.442Z,78.30
2019-05-11T02:44:05.575Z,78.20
2019-05-11T02:45:11.471Z,78.20
2019-05-11T02:46:05.493Z,78.20
2019-05-11T02:47:05.556Z,78.10
2019-05-11T02:48:08.229Z,78.20
2019-05-11T02:49:07.667Z,78.20
2019-05-11T02:50:05.588Z,78.20
2019-05-11T02:51:05.605Z,78.30
2019-05-11T02:52:08.104Z,78.20
2019-05-11T02:53:04.983Z,78.10
2019-05-11T02:54:05.148Z,78.10
2019-05-11T02:55:05.231Z,78.10
2019-05-11T02:56:05.294Z,78.20
2019-05-11T02:57:05.397Z,78.20
2019-05-11T02:58:05.509Z,78.40
2019-05-11T02:59:08.219Z,78.60
2019-05-11T03:00:05.221Z,78.50
2019-05-11T03:01:07.962Z,78.80
2019-05-11T03:02:10.104Z,78.80
2019-05-11T03:03:05.190Z,78.80
2019-05-11T03:04:05.519Z,78.80
2019-05-11T03:05:05.735Z,79.50
2019-05-11T03:06:05.976Z,78.70
2019-05-11T03:07:12.668Z,78.80
2019-05-11T03:08:08.296Z,78.70
2019-05-11T03:09:07.809Z,78.70
2019-05-11T03:10:05.852Z,78.80
2019-05-11T03:11:08.614Z,78.80
2019-05-11T03:12:08.276Z,78.80
2019-05-11T03:13:05.253Z,78.80
2019-05-11T03:14:05.345Z,78.80
2019-05-11T03:15:05.628Z,78.80
2019-05-11T03:16:08.384Z,78.70
2019-05-11T03:17:05.448Z,78.70
2019-05-11T03:18:05.568Z,78.60
2019-05-11T03:19:10.767Z,78.80
2019-05-11T03:20:05.699Z,78.80
2019-05-11T03:21:05.754Z,78.80
2019-05-11T03:22:05.922Z,78.80
2019-05-11T03:23:07.697Z,78.70
2019-05-11T03:24:05.648Z,78.70
2019-05-11T03:25:05.706Z,78.70
2019-05-11T03:26:08.362Z,78.80
2019-05-11T03:27:05.336Z,78.80
2019-05-11T03:28:05.440Z,78.80
2019-05-11T03:29:08.239Z,78.60
2019-05-11T03:30:07.785Z,78.60
2019-05-11T03:31:05.880Z,78.60
2019-05-11T03:32:06.001Z,78.80
2019-05-11T03:33:05.144Z,78.80
2019-05-11T03:34:07.882Z,78.80
2019-05-11T03:35:05.876Z,78.80
2019-05-11T03:36:05.021Z,78.80
2019-05-11T03:37:07.617Z,78.90
2019-05-11T03:38:08.172Z,78.80
2019-05-11T03:39:07.707Z,78.90
2019-05-11T03:40:08.198Z,79.00
2019-05-11T03:41:07.694Z,79.00
2019-05-11T03:42:15.457Z,79.00
2019-05-11T03:43:05.693Z,79.10
2019-05-11T03:44:05.777Z,79.10
2019-05-11T03:45:05.168Z,79.20
2019-05-11T03:46:05.284Z,79.20
2019-05-11T03:47:05.463Z,79.20
2019-05-11T03:48:05.703Z,79.20
2019-05-11T03:49:05.861Z,79.20
2019-05-11T03:50:06.015Z,79.20
2019-05-11T03:51:05.133Z,79.20
2019-05-11T03:52:05.375Z,79.30
2019-05-11T03:53:08.129Z,79.30
2019-05-11T03:54:05.237Z,79.20
2019-05-11T03:55:05.353Z,79.30
2019-05-11T03:56:10.640Z,79.30
2019-05-11T03:57:05.758Z,79.30
2019-05-11T03:58:05.847Z,79.20
2019-05-11T03:59:08.406Z,79.30
2019-05-11T04:00:10.558Z,79.30
2019-05-11T04:01:08.150Z,79.40
2019-05-11T04:02:07.641Z,79.40
2019-05-11T04:03:08.173Z,79.40
2019-05-11T04:04:07.742Z,79.30
2019-05-11T04:05:05.709Z,79.30
2019-05-11T04:06:08.481Z,79.40
2019-05-11T04:07:05.730Z,79.40
2019-05-11T04:08:05.703Z,79.40
2019-05-11T04:09:05.948Z,79.40
2019-05-11T04:10:12.597Z,79.60
2019-05-11T04:11:10.604Z,79.50
2019-05-11T04:12:05.010Z,79.50
2019-05-11T04:13:10.223Z,79.60
2019-05-11T04:14:07.831Z,79.60
2019-05-11T04:15:05.758Z,79.60
2019-05-11T04:16:05.822Z,79.60
2019-05-11T04:17:05.997Z,79.70
2019-05-11T04:18:05.106Z,79.70
2019-05-11T04:19:05.244Z,79.70
2019-05-11T04:20:07.850Z,79.80
2019-05-11T04:21:08.401Z,79.80
2019-05-11T04:22:05.371Z,79.80
2019-05-11T04:23:05.473Z,79.70
2019-05-11T04:24:08.086Z,79.90
2019-05-11T04:25:05.456Z,79.90
2019-05-11T04:26:08.079Z,79.90
2019-05-11T04:27:07.564Z,80.00
2019-05-11T04:28:08.066Z,80.10
2019-05-11T04:29:07.491Z,80.10
2019-05-11T04:30:05.410Z,80.10
2019-05-11T04:31:05.417Z,80.00
2019-05-11T04:32:08.157Z,80.00
2019-05-11T04:33:05.107Z,80.10
2019-05-11T04:34:08.172Z,80.20
2019-05-11T04:35:05.227Z,80.10
2019-05-11T04:36:08.042Z,80.30
2019-05-11T04:37:05.220Z,80.10
2019-05-11T04:38:05.413Z,80.40
2019-05-11T04:39:10.587Z,80.30
2019-05-11T04:40:08.099Z,80.40
2019-05-11T04:41:05.081Z,80.30
2019-05-11T04:42:05.177Z,80.50
2019-05-11T04:43:05.307Z,80.30
2019-05-11T04:44:05.368Z,80.50
2019-05-11T04:45:05.467Z,80.60
2019-05-11T04:46:05.663Z,80.50
2019-05-11T04:47:05.783Z,80.60
2019-05-11T04:48:05.984Z,80.50
2019-05-11T04:49:05.110Z,80.50
2019-05-11T04:50:05.232Z,80.50
2019-05-11T04:51:07.812Z,80.60
2019-05-11T04:52:05.949Z,80.60
2019-05-11T04:53:05.115Z,80.60
2019-05-11T04:54:05.206Z,80.60
2019-05-11T04:55:05.100Z,80.60
2019-05-11T04:56:05.355Z,80.70
2019-05-11T04:57:05.540Z,80.70
2019-05-11T04:58:06.042Z,80.90
2019-05-11T04:59:10.528Z,80.80
2019-05-11T05:00:05.559Z,80.80
2019-05-11T05:01:05.634Z,80.70
2019-05-11T05:02:10.693Z,80.70
2019-05-11T05:03:05.658Z,80.70
2019-05-11T05:04:14.663Z,80.70
2019-05-11T05:05:05.833Z,80.70
2019-05-11T05:06:24.297Z,80.70
2019-05-11T05:07:12.237Z,80.70
2019-05-11T05:08:10.229Z,80.60
2019-05-11T05:09:05.527Z,80.60
2019-05-11T05:10:05.637Z,80.70
2019-05-11T05:11:08.428Z,80.70
2019-05-11T05:12:13.906Z,80.70
2019-05-11T05:13:11.178Z,80.70
2019-05-11T05:14:10.303Z,80.60
2019-05-11T05:15:08.001Z,80.70
2019-05-11T05:16:05.026Z,80.70
2019-05-11T05:17:05.222Z,81.30
2019-05-11T05:18:05.354Z,80.80
2019-05-11T05:19:05.700Z,80.80
2019-05-11T05:20:05.758Z,80.90
2019-05-11T05:21:05.879Z,81.00
2019-05-11T05:22:14.317Z,81.10
2019-05-11T05:23:05.127Z,81.00
2019-05-11T05:24:05.204Z,81.10
2019-05-11T05:25:08.421Z,81.10
2019-05-11T05:26:05.454Z,81.20
2019-05-11T05:27:05.537Z,81.10
2019-05-11T05:28:05.576Z,81.70
2019-05-11T05:29:05.921Z,81.10
2019-05-11T05:30:05.163Z,81.10
2019-05-11T05:31:07.890Z,81.90
2019-05-11T05:32:05.950Z,81.90
2019-05-11T05:33:05.076Z,81.50
2019-05-11T05:34:05.157Z,81.60
2019-05-11T05:35:07.825Z,82.30
2019-05-11T05:36:05.847Z,82.30
2019-05-11T05:37:10.972Z,82.30
2019-05-11T05:38:08.514Z,82.60
2019-05-11T05:39:09.491Z,82.60
2019-05-11T05:40:08.164Z,81.90
2019-05-11T05:41:05.171Z,81.90
2019-05-11T05:42:07.816Z,81.80
2019-05-11T05:43:05.810Z,81.80
2019-05-11T05:44:05.970Z,81.70
2019-05-11T05:45:05.333Z,82.00
2019-05-11T05:46:10.728Z,82.00
2019-05-11T05:47:05.734Z,82.00
2019-05-11T05:48:06.045Z,81.90
2019-05-11T05:49:07.801Z,82.20
2019-05-11T05:50:05.834Z,82.30
2019-05-11T05:51:07.581Z,82.30
2019-05-11T05:52:08.242Z,82.50
2019-05-11T05:53:07.739Z,82.40
2019-05-11T05:54:08.186Z,82.30
2019-05-11T05:55:07.689Z,82.40
2019-05-11T05:56:05.666Z,82.40
2019-05-11T05:57:05.746Z,82.50
2019-05-11T05:58:05.910Z,82.40
2019-05-11T05:59:07.668Z,82.90
2019-05-11T06:00:05.729Z,82.50
2019-05-11T06:01:10.641Z,82.30
2019-05-11T06:02:05.756Z,82.30
2019-05-11T06:03:05.877Z,81.90
2019-05-11T06:04:07.476Z,82.50
2019-05-11T06:05:08.130Z,82.10
2019-05-11T06:06:07.589Z,82.50
2019-05-11T06:07:07.988Z,82.50
2019-05-11T06:08:05.309Z,82.50
2019-05-11T06:09:05.639Z,82.50
2019-05-11T06:10:08.194Z,82.60
2019-05-11T06:11:05.119Z,82.60
2019-05-11T06:12:07.825Z,82.50
2019-05-11T06:13:08.280Z,82.60
2019-05-11T06:14:05.462Z,82.60
2019-05-11T06:15:08.201Z,82.90
2019-05-11T06:16:05.185Z,83.00
2019-05-11T06:17:05.320Z,83.00
2019-05-11T06:18:05.388Z,82.90
2019-05-11T06:19:05.673Z,82.90
2019-05-11T06:20:06.411Z,83.00
2019-05-11T06:21:05.853Z,83.00
2019-05-11T06:22:07.626Z,83.00
2019-05-11T06:23:05.676Z,83.00
2019-05-11T06:24:09.209Z,83.00
2019-05-11T06:25:05.519Z,83.00
2019-05-11T06:26:05.783Z,83.00
2019-05-11T06:27:16.951Z,83.00
2019-05-11T06:28:12.569Z,82.70
2019-05-11T06:29:08.164Z,83.00
2019-05-11T06:30:05.253Z,83.00
2019-05-11T06:31:05.420Z,83.20
2019-05-11T06:32:05.460Z,82.70
2019-05-11T06:33:05.460Z,83.20
2019-05-11T06:34:08.050Z,82.70
2019-05-11T06:35:05.066Z,82.70
2019-05-11T06:36:07.763Z,82.70
2019-05-11T06:37:10.684Z,82.60
2019-05-11T06:38:05.882Z,82.60
2019-05-11T06:39:05.321Z,82.70
2019-05-11T06:40:05.695Z,82.70
2019-05-11T06:41:06.196Z,83.20
2019-05-11T06:42:05.467Z,83.20
2019-05-11T06:43:05.527Z,83.10
2019-05-11T06:44:05.555Z,83.10
2019-05-11T06:45:07.577Z,83.10
2019-05-11T06:46:08.252Z,83.20
2019-05-11T06:47:10.332Z,83.10
2019-05-11T06:48:07.801Z,83.40
2019-05-11T06:49:05.947Z,83.30
2019-05-11T06:50:07.560Z,83.20
2019-05-11T06:51:08.048Z,83.10
2019-05-11T06:52:07.615Z,82.70
2019-05-11T06:53:08.142Z,82.60
2019-05-11T06:54:05.104Z,82.60
2019-05-11T06:55:07.845Z,83.30
2019-05-11T06:56:05.954Z,83.30
2019-05-11T06:57:07.815Z,83.20
2019-05-11T06:58:05.949Z,83.20
2019-05-11T06:59:07.747Z,83.20
2019-05-11T07:00:08.347Z,83.10
2019-05-11T07:01:05.291Z,83.10
2019-05-11T07:02:07.892Z,83.10
2019-05-11T07:03:08.528Z,83.10
2019-05-11T07:04:05.559Z,83.10
2019-05-11T07:05:06.846Z,83.00
2019-05-11T07:06:05.992Z,83.00
2019-05-11T07:07:07.744Z,83.00
2019-05-11T07:08:05.883Z,83.00
2019-05-11T07:09:05.539Z,83.00
2019-05-11T07:10:05.947Z,83.00
2019-05-11T07:11:05.114Z,83.20
2019-05-11T07:12:05.543Z,83.50
2019-05-11T07:13:05.884Z,83.00
2019-05-11T07:14:21.515Z,83.00
2019-05-11T07:15:05.773Z,83.00
2019-05-11T07:16:05.976Z,83.00
2019-05-11T07:17:05.229Z,83.30
2019-05-11T07:18:05.619Z,83.20
2019-05-11T07:19:05.734Z,83.30
2019-05-11T07:20:05.887Z,83.30
2019-05-11T07:21:05.070Z,83.50
2019-05-11T07:22:05.115Z,83.60
2019-05-11T07:23:07.752Z,83.70
2019-05-11T07:24:05.788Z,83.70
2019-05-11T07:25:08.855Z,83.30
2019-05-11T07:26:07.730Z,83.40
2019-05-11T07:27:05.710Z,83.40
2019-05-11T07:28:05.879Z,83.30
2019-05-11T07:29:05.912Z,83.40
2019-05-11T07:30:09.174Z,83.50
2019-05-11T07:31:05.451Z,83.50
2019-05-11T07:32:22.944Z,83.50
2019-05-11T07:33:08.554Z,84.00
2019-05-11T07:34:08.500Z,84.00
2019-05-11T07:35:09.169Z,83.80
2019-05-11T07:36:05.328Z,83.80
2019-05-11T07:37:05.508Z,83.80
2019-05-11T07:38:08.754Z,83.80
2019-05-11T07:39:08.030Z,83.80
2019-05-11T07:40:05.322Z,83.80
2019-05-11T07:41:09.184Z,84.10
2019-05-11T07:42:10.203Z,84.20
2019-05-11T07:43:10.049Z,84.20
2019-05-11T07:44:10.320Z,84.30
2019-05-11T07:45:05.881Z,84.40
2019-05-11T07:46:05.004Z,84.50
2019-05-11T07:47:08.314Z,84.50
2019-05-11T07:48:07.819Z,84.50
2019-05-11T07:49:05.581Z,84.50
2019-05-11T07:50:08.642Z,84.50
2019-05-11T07:51:05.846Z,84.70
2019-05-11T07:52:08.303Z,84.70
2019-05-11T07:53:08.089Z,84.80
2019-05-11T07:54:08.158Z,84.70
2019-05-11T07:55:09.137Z,84.90
2019-05-11T07:56:08.660Z,85.00
2019-05-11T07:57:08.350Z,85.00
2019-05-11T07:58:07.767Z,85.00
2019-05-11T07:59:07.745Z,85.10
2019-05-11T08:00:08.524Z,85.00
2019-05-11T08:01:05.465Z,85.00
2019-05-11T08:02:05.043Z,85.00
2019-05-11T08:03:10.175Z,85.10
2019-05-11T08:04:08.231Z,85.00
2019-05-11T08:05:05.428Z,84.90
2019-05-11T08:06:05.589Z,85.30
2019-05-11T08:07:08.496Z,85.10
2019-05-11T08:08:05.774Z,85.10
2019-05-11T08:09:09.029Z,85.40
2019-05-11T08:10:05.109Z,85.40
2019-05-11T08:11:05.233Z,85.40
2019-05-11T08:12:05.471Z,85.50
2019-05-11T08:13:05.762Z,85.50
2019-05-11T08:14:08.088Z,85.50
2019-05-11T08:15:14.117Z,85.40
2019-05-11T08:16:05.377Z,85.40
2019-05-11T08:17:09.061Z,85.30
2019-05-11T08:18:08.987Z,85.50
2019-05-11T08:19:10.675Z,85.40
2019-05-11T08:20:05.081Z,85.40
2019-05-11T08:21:05.293Z,85.50
2019-05-11T08:22:05.418Z,85.50
2019-05-11T08:23:10.741Z,85.60
2019-05-11T08:24:05.737Z,85.60
2019-05-11T08:25:09.626Z,85.50
2019-05-11T08:26:08.805Z,85.60
2019-05-11T08:27:08.131Z,85.70
2019-05-11T08:28:12.175Z,85.60
2019-05-11T08:29:08.434Z,85.50
2019-05-11T08:30:05.595Z,85.50
2019-05-11T08:31:08.537Z,85.70
2019-05-11T08:32:08.620Z,85.70
2019-05-11T08:33:05.662Z,85.70
2019-05-11T08:34:09.248Z,85.50
2019-05-11T08:35:05.374Z,85.50
2019-05-11T08:36:08.816Z,85.40
2019-05-11T08:37:05.984Z,85.40
2019-05-11T08:38:09.191Z,85.50
2019-05-11T08:39:07.074Z,85.50
2019-05-11T08:40:08.439Z,85.50
2019-05-11T08:41:08.394Z,85.50
2019-05-11T08:42:09.112Z,85.40
2019-05-11T08:43:05.183Z,85.40
2019-05-11T08:44:05.374Z,85.50
2019-05-11T08:45:23.797Z,85.50
2019-05-11T08:46:08.207Z,85.60
2019-05-11T08:47:10.383Z,85.40
2019-05-11T08:48:05.424Z,85.40
2019-05-11T08:49:09.044Z,85.60
2019-05-11T08:50:05.062Z,85.70
2019-05-11T08:51:08.786Z,85.70
2019-05-11T08:52:04.973Z,85.70
2019-05-11T08:53:05.302Z,85.80
2019-05-11T08:54:09.380Z,85.90
2019-05-11T08:55:08.994Z,86.10
2019-05-11T08:56:05.044Z,86.10
2019-05-11T08:57:08.697Z,85.90
2019-05-11T08:58:08.455Z,86.00
2019-05-11T08:59:08.362Z,85.90
2019-05-11T09:00:05.620Z,86.00
2019-05-11T09:01:05.782Z,85.90
2019-05-11T09:02:08.503Z,85.90
2019-05-11T09:03:05.782Z,85.80
2019-05-11T09:04:05.984Z,85.80
2019-05-11T09:05:08.728Z,85.80
2019-05-11T09:06:07.795Z,85.80
2019-05-11T09:07:08.119Z,85.70
2019-05-11T09:08:05.339Z,85.70
2019-05-11T09:09:05.469Z,85.70
2019-05-11T09:10:07.861Z,85.90
2019-05-11T09:11:05.186Z,85.80
2019-05-11T09:12:07.550Z,85.70
2019-05-11T09:13:08.540Z,85.90
2019-05-11T09:14:08.126Z,85.90
2019-05-11T09:15:09.146Z,86.10
2019-05-11T09:16:05.159Z,86.00
2019-05-11T09:17:08.303Z,86.20
2019-05-11T09:18:05.337Z,86.20
2019-05-11T09:19:05.582Z,86.30
2019-05-11T09:20:05.716Z,86.30
2019-05-11T09:21:08.537Z,86.40
2019-05-11T09:22:08.038Z,86.40
2019-05-11T09:23:05.220Z,86.60
2019-05-11T09:24:08.913Z,86.60
2019-05-11T09:25:09.287Z,86.60
2019-05-11T09:26:05.404Z,86.60
2019-05-11T09:27:10.516Z,86.60
2019-05-11T09:28:09.099Z,86.70
2019-05-11T09:29:10.206Z,86.60
2019-05-11T09:30:08.701Z,86.70
2019-05-11T09:31:08.984Z,86.70
2019-05-11T09:32:09.329Z,86.70
2019-05-11T09:33:08.958Z,86.70
2019-05-11T09:34:09.475Z,86.80
2019-05-11T09:35:07.636Z,86.80
2019-05-11T09:36:08.986Z,86.80
2019-05-11T09:37:08.431Z,86.80
2019-05-11T09:38:08.532Z,86.90
2019-05-11T09:39:08.158Z,87.10
2019-05-11T09:40:08.134Z,87.10
2019-05-11T09:41:07.694Z,87.20
2019-05-11T09:42:07.140Z,87.00
2019-05-11T09:43:05.760Z,87.10
2019-05-11T09:44:05.965Z,86.90
2019-05-11T09:45:08.501Z,86.90
2019-05-11T09:46:08.804Z,87.20
2019-05-11T09:47:08.853Z,87.20
2019-05-11T09:48:09.226Z,87.10
2019-05-11T09:49:10.531Z,87.10
2019-05-11T09:50:05.589Z,87.10
2019-05-11T09:51:08.207Z,87.20
2019-05-11T09:52:08.306Z,87.40
2019-05-11T09:53:09.226Z,87.50
2019-05-11T09:54:08.126Z,87.50
2019-05-11T09:55:05.066Z,87.40
2019-05-11T09:56:10.454Z,87.70
2019-05-11T09:57:08.699Z,87.60
2019-05-11T09:58:08.961Z,87.50
2019-05-11T09:59:05.931Z,87.60
2019-05-11T10:00:09.281Z,87.60
2019-05-11T10:01:09.338Z,87.60
2019-05-11T10:02:07.719Z,87.60
2019-05-11T10:03:08.659Z,87.70
2019-05-11T10:04:10.789Z,87.60
2019-05-11T10:05:08.853Z,87.50
2019-05-11T10:06:08.622Z,87.60
2019-05-11T10:07:05.758Z,87.50
2019-05-11T10:08:05.707Z,87.50
2019-05-11T10:09:08.483Z,87.50
2019-05-11T10:10:05.550Z,87.40
2019-05-11T10:11:08.822Z,87.20
2019-05-11T10:12:08.567Z,87.20
2019-05-11T10:13:07.821Z,87.30
2019-05-11T10:14:08.749Z,87.20
2019-05-11T10:15:08.947Z,87.50
2019-05-11T10:16:10.747Z,87.20
2019-05-11T10:17:07.167Z,87.30
2019-05-11T10:18:08.675Z,87.20
2019-05-11T10:19:13.506Z,87.00
2019-05-11T10:20:06.038Z,86.90
2019-05-11T10:21:05.383Z,86.90
2019-05-11T10:22:07.852Z,86.80
2019-05-11T10:23:07.735Z,86.70
2019-05-11T10:24:08.196Z,86.60
2019-05-11T10:25:05.909Z,86.50
2019-05-11T10:26:08.520Z,86.40
2019-05-11T10:27:09.035Z,86.40
2019-05-11T10:28:05.872Z,86.40
2019-05-11T10:29:08.526Z,86.50
2019-05-11T10:30:08.607Z,86.50
2019-05-11T10:31:08.518Z,86.40
2019-05-11T10:32:11.682Z,86.60
2019-05-11T10:33:08.820Z,86.60
2019-05-11T10:34:09.366Z,86.30
2019-05-11T10:35:08.540Z,86.30
2019-05-11T10:36:08.894Z,86.20
2019-05-11T10:37:05.685Z,86.30
2019-05-11T10:38:09.731Z,86.40
2019-05-11T10:39:08.556Z,86.50
2019-05-11T10:40:10.217Z,86.40
2019-05-11T10:41:11.077Z,86.60
2019-05-11T10:42:05.633Z,86.60
2019-05-11T10:43:08.497Z,86.50
2019-05-11T10:44:09.189Z,86.70
2019-05-11T10:45:09.823Z,86.70
2019-05-11T10:46:23.397Z,86.70
2019-05-11T10:47:07.583Z,86.70
2019-05-11T10:48:05.850Z,86.60
2019-05-11T10:49:12.336Z,86.80
2019-05-11T10:50:08.255Z,86.80
2019-05-11T10:51:08.781Z,86.70
2019-05-11T10:52:06.425Z,86.80
2019-05-11T10:53:08.730Z,86.80
2019-05-11T10:54:09.210Z,86.80
2019-05-11T10:55:09.146Z,86.80
2019-05-11T10:56:10.830Z,86.70
2019-05-11T10:57:08.233Z,86.70
2019-05-11T10:58:08.348Z,86.70
2019-05-11T10:59:08.539Z,86.70
2019-05-11T11:00:05.788Z,86.60
2019-05-11T11:01:10.545Z,86.70
2019-05-11T11:02:08.648Z,86.80
2019-05-11T11:03:09.251Z,86.70
2019-05-11T11:04:08.830Z,86.80
2019-05-11T11:05:08.811Z,86.70
2019-05-11T11:06:09.019Z,86.90
2019-05-11T11:07:10.650Z,86.80
2019-05-11T11:08:08.789Z,86.70
2019-05-11T11:09:08.778Z,86.80
2019-05-11T11:10:08.702Z,86.80
2019-05-11T11:11:07.783Z,86.70
2019-05-11T11:12:05.573Z,86.60
2019-05-11T11:13:08.994Z,86.70
2019-05-11T11:14:05.553Z,86.70
2019-05-11T11:15:08.269Z,86.70
2019-05-11T11:16:08.172Z,86.60
2019-05-11T11:17:08.431Z,86.70
2019-05-11T11:18:06.233Z,86.90
2019-05-11T11:19:08.208Z,86.90
2019-05-11T11:20:05.684Z,86.70
2019-05-11T11:21:08.389Z,86.90
2019-05-11T11:22:40.087Z,87.00
2019-05-11T11:23:05.982Z,86.90
2019-05-11T11:24:08.264Z,86.90
2019-05-11T11:25:08.556Z,87.00
2019-05-11T11:26:08.938Z,86.90
2019-05-11T11:27:10.968Z,86.90
2019-05-11T11:28:09.403Z,86.90
2019-05-11T11:29:08.391Z,35.70
2019-05-11T11:30:08.468Z,86.90
2019-05-11T11:31:10.684Z,86.80
2019-05-11T11:32:09.030Z,87.00
2019-05-11T11:33:15.682Z,87.10
2019-05-11T11:34:09.030Z,87.10
2019-05-11T11:35:08.132Z,87.10
2019-05-11T11:36:09.270Z,87.00
2019-05-11T11:37:08.154Z,87.00
2019-05-11T11:38:10.960Z,86.90
2019-05-11T11:39:05.578Z,86.90
2019-05-11T11:40:08.330Z,86.70
2019-05-11T11:41:11.259Z,86.40
2019-05-11T11:42:05.735Z,86.40
2019-05-11T11:43:08.450Z,86.40
2019-05-11T11:44:08.924Z,86.30
2019-05-11T11:45:07.775Z,86.30
2019-05-11T11:46:09.052Z,86.20
2019-05-11T11:47:05.586Z,86.30
2019-05-11T11:48:11.428Z,86.40
2019-05-11T11:49:08.127Z,86.40
2019-05-11T11:50:05.912Z,86.40
2019-05-11T11:51:07.893Z,86.40
2019-05-11T11:52:08.107Z,86.50
2019-05-11T11:53:05.635Z,86.60
2019-05-11T11:54:09.581Z,86.60
2019-05-11T11:55:09.182Z,86.70
2019-05-11T11:56:08.220Z,86.80
2019-05-11T11:57:08.325Z,86.70
2019-05-11T11:58:08.073Z,86.70
2019-05-11T11:59:05.877Z,86.70
2019-05-11T12:00:05.816Z,86.40
2019-05-11T12:01:09.018Z,86.40
2019-05-11T12:02:09.429Z,86.10
2019-05-11T12:03:08.620Z,86.10
2019-05-11T12:04:08.186Z,85.90
2019-05-11T12:05:08.472Z,86.00
2019-05-11T12:06:08.498Z,86.00
2019-05-11T12:07:08.372Z,86.10
2019-05-11T12:08:10.445Z,86.20
2019-05-11T12:09:08.132Z,86.20
2019-05-11T12:10:08.557Z,86.20
2019-05-11T12:11:08.551Z,86.30
2019-05-11T12:12:07.846Z,86.30
2019-05-11T12:13:10.853Z,86.40
2019-05-11T12:14:08.458Z,86.50
2019-05-11T12:15:08.627Z,86.40
2019-05-11T12:16:08.906Z,86.40
2019-05-11T12:17:11.080Z,86.20
2019-05-11T12:18:08.985Z,86.30
2019-05-11T12:19:08.130Z,86.30
2019-05-11T12:20:09.783Z,86.30
2019-05-11T12:21:08.786Z,86.40
2019-05-11T12:22:08.429Z,86.30
2019-05-11T12:23:08.561Z,86.30
2019-05-11T12:24:11.969Z,86.40
2019-05-11T12:25:10.590Z,86.40
2019-05-11T12:26:08.233Z,86.40
2019-05-11T12:27:08.682Z,86.20
2019-05-11T12:28:08.691Z,86.40
2019-05-11T12:29:09.165Z,86.20
2019-05-11T12:30:13.383Z,86.20
2019-05-11T12:31:11.025Z,86.30
2019-05-11T12:32:07.935Z,86.20
2019-05-11T12:33:08.079Z,86.40
2019-05-11T12:34:10.854Z,86.30
2019-05-11T12:35:08.594Z,86.40
2019-05-11T12:36:08.992Z,86.60
2019-05-11T12:37:09.274Z,86.60
2019-05-11T12:38:08.329Z,86.70
2019-05-11T12:39:08.275Z,86.60
2019-05-11T12:40:08.202Z,86.60
2019-05-11T12:41:08.430Z,86.70
2019-05-11T12:42:09.989Z,86.90
2019-05-11T12:43:07.495Z,86.90
2019-05-11T12:44:08.958Z,86.80
2019-05-11T12:45:08.148Z,86.70
2019-05-11T12:46:08.562Z,86.80
2019-05-11T12:47:24.962Z,86.90
2019-05-11T12:48:06.057Z,86.90
2019-05-11T12:49:08.522Z,86.90
2019-05-11T12:50:08.613Z,87.10
2019-05-11T12:51:08.544Z,87.20
2019-05-11T12:52:08.918Z,87.00